CheckWX is a tool to help pilots better visualize weather data.  It is not intended as a substitute for an official pre-flight weather briefing.

07:41:08 UTC

LGRX METAR
Araxos Airport
Patras, Greece
Current

21 mins ago

LGRX 290720Z VRB03KT 9999 SCT025 20/13 Q1018
Observed
May-29 @ 07:20 UTC
Wind
  • Variable at 3 KTS
Visibility
10,000+ meters
Flight Rules
VFR
Cloud Levels
  • Scattered at 2,500' AGL
Temperature
20°C / 68°F
Dewpoint
13°C / 55°F
Humidity
64%
Altimeter
30.06" Hg
Pressure
1017.92 hPa
Previous

51 mins ago

LGRX 290650Z VRB03KT 9999 SCT025 20/14 Q1018
Observed
May-29 @ 06:50 UTC
Wind
  • Variable at 3 KTS
Visibility
10,000+ meters
Flight Rules
VFR
Cloud Levels
  • Scattered at 2,500' AGL
Temperature
20°C / 68°F
Dewpoint
14°C / 57°F
Humidity
69%
Altimeter
30.06" Hg
Pressure
1017.92 hPa
Previous

51 mins ago

LGRX 290650Z VRB03KT 9999 SCT025 20/14 Q1018 RMK FEW100 SCT180 BLU
Observed
May-29 @ 06:50 UTC
Wind
  • Variable at 3 KTS
Visibility
10,000+ meters
Flight Rules
VFR
Cloud Levels
  • Scattered at 2,500' AGL
Temperature
20°C / 68°F
Dewpoint
14°C / 57°F
Humidity
69%
Altimeter
30.06" Hg
Pressure
1017.92 hPa